Time;durP1;ratioP1;P1;durP2;ratioP2;P2;SDS_P1;SDS_P2;PMS_P1;PMS_P2;Temp;Humidity;BMP_temperature;BMP_pressure;BME280_temperature;BME280_humidity;BME280_pressure;Samples;Min_cycle;Max_cycle;Signal;HPM_P1;HPM_P2
2024/03/22 00:01:46;;;;;;;24.67;11.47;;;11.30;99.90;;;;;;5073663;28;20396;-69
2024/03/22 00:04:13;;;;;;;22.90;9.50;;;11.20;99.90;;;;;;5074007;28;20579;-69
2024/03/22 00:06:39;;;;;;;13.70;8.60;;;11.20;99.90;;;;;;5073860;28;20407;-69
2024/03/22 00:09:05;;;;;;;17.10;7.90;;;11.20;99.90;;;;;;5053697;28;21006;-69
2024/03/22 00:11:31;;;;;;;14.53;7.80;;;11.20;99.90;;;;;;5055700;28;20455;-69
2024/03/22 00:13:56;;;;;;;18.33;8.83;;;11.20;99.90;;;;;;5073331;28;20451;-69
2024/03/22 00:16:22;;;;;;;15.50;8.53;;;11.20;99.90;;;;;;5072730;28;20173;-69
2024/03/22 00:18:47;;;;;;;12.47;7.23;;;11.20;99.90;;;;;;5071081;28;20673;-69
2024/03/22 00:21:13;;;;;;;16.20;9.70;;;11.20;99.90;;;;;;5069936;28;20650;-69
2024/03/22 00:23:38;;;;;;;17.60;7.90;;;11.30;99.90;;;;;;5073480;28;20174;-69
2024/03/22 00:26:04;;;;;;;13.80;7.33;;;11.30;99.90;;;;;;5069508;28;20178;-69
2024/03/22 00:28:29;;;;;;;17.23;8.30;;;11.30;99.90;;;;;;5073177;28;20206;-69
2024/03/22 00:30:55;;;;;;;18.27;8.53;;;11.30;99.90;;;;;;5062378;28;20170;-69
2024/03/22 00:33:20;;;;;;;14.80;8.97;;;11.30;99.90;;;;;;5073118;28;20201;-69
2024/03/22 00:35:46;;;;;;;11.73;6.53;;;11.30;99.90;;;;;;5052220;28;20177;-68
2024/03/22 00:38:12;;;;;;;15.97;8.50;;;11.40;99.90;;;;;;5072786;28;20198;-69
2024/03/22 00:40:38;;;;;;;12.77;6.43;;;11.40;99.90;;;;;;5073029;28;20182;-69
2024/03/22 00:43:03;;;;;;;16.83;7.73;;;11.40;99.90;;;;;;5072859;28;20458;-70
2024/03/22 00:45:29;;;;;;;18.20;7.70;;;11.40;99.90;;;;;;5069521;28;20683;-69
2024/03/22 00:47:54;;;;;;;16.23;7.90;;;11.40;99.90;;;;;;5072723;28;20178;-69
2024/03/22 00:50:20;;;;;;;11.90;6.80;;;11.40;99.90;;;;;;5072855;28;20190;-69
2024/03/22 00:52:45;;;;;;;13.67;8.03;;;11.40;99.90;;;;;;5072610;28;20218;-69
2024/03/22 00:55:11;;;;;;;14.20;7.60;;;11.40;99.90;;;;;;5072686;28;20163;-69
2024/03/22 00:57:36;;;;;;;13.07;8.10;;;11.40;99.90;;;;;;5067479;28;20221;-69
2024/03/22 01:00:03;;;;;;;13.33;6.37;;;11.40;99.90;;;;;;5066634;28;20218;-68
2024/03/22 01:02:28;;;;;;;11.80;7.10;;;11.30;99.90;;;;;;5072780;28;20489;-69
2024/03/22 01:04:54;;;;;;;12.23;7.83;;;11.40;99.90;;;;;;5054829;28;20414;-69
2024/03/22 01:07:19;;;;;;;15.07;6.90;;;11.40;99.90;;;;;;5053649;28;20192;-69
2024/03/22 01:09:45;;;;;;;13.60;6.60;;;11.40;99.90;;;;;;5072420;28;20197;-70
2024/03/22 01:12:10;;;;;;;10.83;6.80;;;11.40;99.90;;;;;;5072279;28;20213;-69
2024/03/22 01:14:36;;;;;;;14.87;6.77;;;11.40;99.90;;;;;;5072495;28;20190;-69
2024/03/22 01:17:02;;;;;;;13.47;7.10;;;11.40;99.90;;;;;;5069101;28;20222;-69
2024/03/22 01:19:27;;;;;;;13.10;6.40;;;11.40;99.90;;;;;;5069775;28;20547;-69
2024/03/22 01:21:53;;;;;;;16.60;6.47;;;11.40;99.90;;;;;;5062002;28;20167;-69
2024/03/22 01:24:18;;;;;;;10.30;5.43;;;11.50;99.90;;;;;;5072297;28;20185;-69
2024/03/22 01:26:44;;;;;;;9.57;5.40;;;11.40;99.90;;;;;;5068520;28;20182;-69
2024/03/22 01:29:09;;;;;;;12.80;6.30;;;11.40;99.90;;;;;;5071953;28;20198;-69
2024/03/22 01:31:35;;;;;;;7.73;5.13;;;11.40;99.90;;;;;;5072249;28;20184;-68
2024/03/22 01:34:00;;;;;;;14.70;6.90;;;11.40;99.90;;;;;;5072014;28;20205;-70
2024/03/22 01:36:26;;;;;;;10.67;5.47;;;11.40;99.90;;;;;;5050577;28;20182;-69
2024/03/22 01:38:51;;;;;;;8.30;6.27;;;11.40;99.90;;;;;;5072033;28;20692;-69
2024/03/22 01:41:17;;;;;;;7.73;5.47;;;11.50;99.90;;;;;;5072010;28;20170;-69
2024/03/22 01:43:43;;;;;;;10.60;6.93;;;11.50;99.90;;;;;;5071829;28;20167;-69
2024/03/22 01:46:09;;;;;;;10.40;6.10;;;11.50;99.90;;;;;;5051289;28;20426;-68
2024/03/22 01:48:35;;;;;;;9.60;6.00;;;11.50;99.90;;;;;;5069502;28;20281;-69
2024/03/22 01:51:01;;;;;;;9.23;5.60;;;11.40;99.90;;;;;;5071840;28;20197;-69
2024/03/22 01:53:27;;;;;;;9.10;5.50;;;11.50;99.90;;;;;;5071964;28;20330;-69
2024/03/22 01:55:53;;;;;;;9.97;6.43;;;11.50;99.90;;;;;;5069766;28;20919;-69
2024/03/22 01:58:18;;;;;;;8.80;5.17;;;11.50;99.90;;;;;;5049461;28;20473;-69
2024/03/22 02:00:44;;;;;;;14.30;7.43;;;11.50;99.90;;;;;;5061369;28;20166;-69
2024/03/22 02:03:09;;;;;;;12.90;5.53;;;11.50;99.90;;;;;;5071907;28;20162;-69
2024/03/22 02:05:35;;;;;;;9.17;5.57;;;11.50;99.90;;;;;;5070052;28;20645;-69
2024/03/22 02:08:00;;;;;;;7.40;5.27;;;11.50;99.90;;;;;;5066679;28;20226;-69
2024/03/22 02:10:26;;;;;;;11.13;6.00;;;11.50;99.90;;;;;;5071407;28;20687;-70
2024/03/22 02:12:52;;;;;;;9.77;5.90;;;11.40;99.90;;;;;;5071762;28;20252;-69
2024/03/22 02:15:17;;;;;;;6.67;5.33;;;11.50;99.90;;;;;;5071100;28;20311;-70
2024/03/22 02:17:43;;;;;;;22.80;6.23;;;11.40;99.90;;;;;;5067852;28;20641;-70
2024/03/22 02:20:10;;;;;;;12.13;5.20;;;11.30;99.90;;;;;;5071518;28;20249;-70
2024/03/22 02:22:35;;;;;;;7.40;5.90;;;11.40;99.90;;;;;;5071769;28;20159;-69
2024/03/22 02:25:01;;;;;;;9.37;5.03;;;11.40;99.90;;;;;;5069729;28;20450;-70
2024/03/22 02:27:26;;;;;;;9.50;6.00;;;11.40;99.90;;;;;;5069786;28;20170;-70
2024/03/22 02:29:52;;;;;;;10.53;6.47;;;11.40;99.90;;;;;;5071479;28;20201;-69
2024/03/22 02:32:17;;;;;;;8.83;5.43;;;11.40;99.90;;;;;;5071616;28;20178;-69
2024/03/22 02:34:43;;;;;;;11.40;5.80;;;11.50;99.90;;;;;;5071510;28;20284;-69
2024/03/22 02:37:08;;;;;;;14.93;6.17;;;11.40;99.90;;;;;;5050681;28;20210;-69
2024/03/22 02:39:34;;;;;;;7.17;5.37;;;11.50;99.90;;;;;;5071203;28;20219;-70
2024/03/22 02:41:59;;;;;;;7.87;4.97;;;11.50;99.90;;;;;;5071415;28;20245;-70
2024/03/22 02:44:25;;;;;;;7.50;4.03;;;11.50;99.90;;;;;;5071720;28;20530;-70
2024/03/22 02:46:50;;;;;;;9.60;6.20;;;11.50;99.90;;;;;;5065743;28;20566;-70
2024/03/22 02:49:16;;;;;;;12.57;6.17;;;11.50;99.90;;;;;;5056437;28;20194;-70
2024/03/22 02:51:41;;;;;;;7.20;5.13;;;11.40;99.90;;;;;;5071305;28;20193;-70
2024/03/22 02:54:07;;;;;;;9.13;6.27;;;11.50;99.90;;;;;;5071417;28;20190;-70
2024/03/22 02:56:33;;;;;;;8.37;4.97;;;11.60;99.90;;;;;;5049686;28;20588;-69
2024/03/22 02:58:58;;;;;;;10.57;5.70;;;11.60;99.90;;;;;;5045454;28;20665;-69
2024/03/22 03:01:24;;;;;;;6.67;4.77;;;11.60;99.90;;;;;;5071116;28;20216;-70
2024/03/22 03:03:49;;;;;;;7.70;5.63;;;11.60;99.90;;;;;;5053194;28;20170;-70
2024/03/22 03:06:16;;;;;;;7.53;4.60;;;11.60;99.90;;;;;;5068898;28;20205;-70
2024/03/22 03:08:42;;;;;;;11.73;6.53;;;11.60;99.90;;;;;;5069278;28;20213;-70
2024/03/22 03:11:07;;;;;;;7.00;4.70;;;11.60;99.90;;;;;;5071347;28;20807;-70
2024/03/22 03:13:33;;;;;;;8.10;5.37;;;11.70;99.90;;;;;;5070955;28;20277;-70
2024/03/22 03:15:58;;;;;;;11.90;5.67;;;11.70;99.90;;;;;;5069310;28;20578;-70
2024/03/22 03:18:24;;;;;;;9.10;4.33;;;11.70;99.90;;;;;;5071561;28;20557;-70
2024/03/22 03:20:49;;;;;;;8.17;5.20;;;11.60;99.90;;;;;;5074368;28;20174;-70
2024/03/22 03:23:15;;;;;;;7.63;4.90;;;11.60;99.90;;;;;;5073671;28;20275;-70
2024/03/22 03:25:40;;;;;;;10.83;5.50;;;11.60;99.90;;;;;;5053614;28;20188;-69
2024/03/22 03:28:07;;;;;;;8.47;5.33;;;11.60;99.90;;;;;;5056002;28;20201;-69
2024/03/22 03:30:33;;;;;;;9.27;6.70;;;11.60;99.90;;;;;;5074200;28;20587;-71
2024/03/22 03:32:58;;;;;;;11.50;5.37;;;11.60;99.90;;;;;;5074297;28;20444;-69
2024/03/22 03:35:25;;;;;;;10.97;6.53;;;11.60;99.90;;;;;;5073924;28;20734;-70
2024/03/22 03:37:51;;;;;;;9.87;5.70;;;11.50;99.90;;;;;;5070159;28;20688;-70
2024/03/22 03:40:16;;;;;;;13.83;5.40;;;11.50;99.90;;;;;;5074050;28;20436;-70
2024/03/22 03:42:42;;;;;;;9.03;5.90;;;11.40;99.90;;;;;;5074087;28;20303;-70
2024/03/22 03:45:07;;;;;;;10.40;5.60;;;11.40;99.90;;;;;;5074430;28;20167;-70
2024/03/22 03:47:33;;;;;;;8.87;5.33;;;11.30;99.90;;;;;;5055035;28;20174;-69
2024/03/22 03:49:58;;;;;;;8.77;6.00;;;11.30;99.90;;;;;;5056355;28;20221;-70
2024/03/22 03:52:24;;;;;;;12.83;5.50;;;11.20;99.90;;;;;;5073816;28;20182;-69
2024/03/22 03:54:49;;;;;;;8.10;5.90;;;11.20;99.90;;;;;;5073881;28;20277;-69
2024/03/22 03:57:15;;;;;;;10.93;5.90;;;11.20;99.90;;;;;;5069642;28;20278;-70
2024/03/22 03:59:40;;;;;;;11.93;6.07;;;11.10;99.90;;;;;;5055764;28;20680;-70
2024/03/22 04:02:06;;;;;;;12.83;6.90;;;11.20;99.90;;;;;;5073423;28;20249;-70
2024/03/22 04:04:32;;;;;;;9.17;6.33;;;11.30;99.90;;;;;;5073997;28;20170;-70
2024/03/22 04:06:57;;;;;;;11.03;6.60;;;11.20;99.90;;;;;;5069484;28;20252;-70
2024/03/22 04:09:23;;;;;;;8.70;5.33;;;11.20;99.90;;;;;;5073377;28;20844;-69
2024/03/22 04:11:48;;;;;;;7.80;5.07;;;11.20;99.90;;;;;;5073461;28;20652;-70
2024/03/22 04:14:14;;;;;;;11.00;6.93;;;11.10;99.90;;;;;;5073530;28;20229;-70
2024/03/22 04:16:40;;;;;;;8.60;5.33;;;11.10;99.90;;;;;;5069235;28;20520;-71
2024/03/22 04:19:05;;;;;;;8.67;5.60;;;11.00;99.90;;;;;;5073149;28;20198;-69
2024/03/22 04:21:31;;;;;;;9.40;6.00;;;10.90;99.90;;;;;;5073290;28;20176;-70
2024/03/22 04:23:56;;;;;;;11.13;6.40;;;10.90;99.90;;;;;;5073396;28;20170;-70
2024/03/22 04:26:22;;;;;;;11.83;6.40;;;10.80;99.90;;;;;;5070086;28;20280;-70
2024/03/22 04:28:48;;;;;;;7.90;5.80;;;10.70;99.90;;;;;;5072563;28;20201;-70
2024/03/22 04:31:14;;;;;;;12.67;6.60;;;10.70;99.90;;;;;;5072921;28;20770;-70
2024/03/22 04:33:39;;;;;;;8.80;5.40;;;10.60;99.90;;;;;;5055221;28;20990;-70
2024/03/22 04:36:05;;;;;;;10.40;6.30;;;10.60;99.90;;;;;;5070320;28;20231;-70
2024/03/22 04:38:31;;;;;;;10.50;5.47;;;10.50;99.90;;;;;;5070525;28;20680;-70
2024/03/22 04:40:57;;;;;;;9.90;5.87;;;10.50;99.90;;;;;;5072827;28;20404;-70
2024/03/22 04:43:24;;;;;;;11.03;5.80;;;10.50;99.90;;;;;;5072941;28;20415;-70
2024/03/22 04:45:53;;;;;;;11.87;6.40;;;10.60;99.90;;;;;;5071751;28;20177;-70
2024/03/22 04:48:21;;;;;;;8.57;5.23;;;10.70;99.90;;;;;;5070064;28;20831;-70
2024/03/22 04:50:48;;;;;;;9.50;6.40;;;10.70;99.90;;;;;;5072593;28;20907;-70
2024/03/22 04:53:13;;;;;;;8.90;5.90;;;10.70;99.90;;;;;;5072593;28;20825;-70
2024/03/22 04:55:44;;;;;;;8.93;6.23;;;10.70;99.90;;;;;;5072442;28;20407;-70
2024/03/22 04:58:11;;;;;;;9.30;6.33;;;10.70;99.90;;;;;;5053857;28;20221;-70
2024/03/22 05:00:37;;;;;;;11.30;5.83;;;10.90;99.90;;;;;;5072472;28;20487;-70
2024/03/22 05:03:02;;;;;;;9.47;7.07;;;10.90;99.90;;;;;;5072460;28;20541;-70
2024/03/22 05:05:28;;;;;;;8.83;6.67;;;10.90;99.90;;;;;;5054324;28;20171;-70
2024/03/22 05:07:54;;;;;;;9.43;6.80;;;11.00;99.90;;;;;;5067949;28;20222;-69
2024/03/22 05:10:19;;;;;;;10.00;6.53;;;11.00;99.90;;;;;;5051884;28;20404;-70
2024/03/22 05:12:45;;;;;;;16.47;10.17;;;11.00;99.90;;;;;;5072560;28;20174;-71
2024/03/22 05:15:11;;;;;;;11.87;8.23;;;11.10;99.90;;;;;;5072391;28;20586;-70
2024/03/22 05:17:36;;;;;;;20.07;8.17;;;11.10;99.90;;;;;;5067580;28;20170;-69
2024/03/22 05:20:02;;;;;;;12.80;8.47;;;11.10;99.90;;;;;;5072076;28;20197;-70
2024/03/22 05:22:28;;;;;;;12.37;8.20;;;11.20;99.90;;;;;;5072037;28;20173;-70
2024/03/22 05:24:54;;;;;;;13.17;8.60;;;11.20;99.90;;;;;;5072342;28;20405;-70
2024/03/22 05:27:19;;;;;;;14.23;8.63;;;11.30;99.90;;;;;;5069165;28;20688;-72
2024/03/22 05:29:45;;;;;;;26.40;10.13;;;11.30;99.90;;;;;;5060027;28;20614;-70
2024/03/22 05:32:10;;;;;;;15.07;9.80;;;11.40;99.90;;;;;;5072114;28;20170;-70
2024/03/22 05:34:36;;;;;;;12.10;8.73;;;11.50;99.90;;;;;;5072464;28;20229;-70
2024/03/22 05:37:02;;;;;;;17.80;9.77;;;11.50;99.90;;;;;;5069615;28;20581;-70
2024/03/22 05:39:28;;;;;;;14.77;9.70;;;11.60;99.90;;;;;;5071380;28;20452;-70
2024/03/22 05:41:54;;;;;;;15.27;10.20;;;11.70;99.90;;;;;;5071853;28;20409;-70
2024/03/22 05:44:21;;;;;;;19.30;10.47;;;11.70;99.90;;;;;;5071895;28;20173;-70
2024/03/22 05:46:47;;;;;;;19.97;11.63;;;11.80;99.90;;;;;;5070776;28;20465;-70
2024/03/22 05:49:12;;;;;;;18.10;11.50;;;11.80;99.90;;;;;;5067335;28;20523;-70
2024/03/22 05:51:38;;;;;;;19.73;12.23;;;11.80;99.90;;;;;;5071496;28;20692;-70
2024/03/22 05:54:03;;;;;;;17.73;12.00;;;11.90;99.90;;;;;;5071844;28;20196;-70
2024/03/22 05:56:29;;;;;;;21.97;13.10;;;12.00;99.90;;;;;;5071508;28;20216;-71
2024/03/22 05:58:54;;;;;;;16.83;11.30;;;12.10;99.90;;;;;;5060740;28;20201;-70
2024/03/22 06:01:20;;;;;;;17.50;10.90;;;12.10;99.90;;;;;;5071556;28;20170;-69
2024/03/22 06:03:45;;;;;;;22.30;12.43;;;12.30;99.90;;;;;;5071598;28;20227;-70
2024/03/22 06:06:12;;;;;;;19.00;12.37;;;12.40;99.90;;;;;;5053460;28;20170;-71
2024/03/22 06:08:39;;;;;;;16.43;10.40;;;12.40;99.90;;;;;;5071544;28;20269;-71
2024/03/22 06:11:05;;;;;;;21.00;13.30;;;12.50;99.90;;;;;;5063425;28;20409;-71
2024/03/22 06:13:32;;;;;;;15.60;11.00;;;12.60;99.90;;;;;;5071506;28;20966;-71
2024/03/22 06:15:57;;;;;;;20.30;11.80;;;12.70;99.90;;;;;;5071365;28;20408;-70
2024/03/22 06:18:23;;;;;;;20.40;12.20;;;12.70;99.90;;;;;;5071620;28;20523;-70
2024/03/22 06:20:48;;;;;;;22.10;13.20;;;12.80;99.90;;;;;;5071869;28;20523;-70
2024/03/22 06:23:14;;;;;;;16.07;11.50;;;12.80;99.90;;;;;;5071460;28;20166;-70
2024/03/22 06:25:39;;;;;;;18.43;12.60;;;12.90;99.90;;;;;;5067158;28;20190;-70
2024/03/22 06:28:05;;;;;;;19.10;12.67;;;12.90;99.90;;;;;;5066854;28;20194;-71
2024/03/22 06:30:30;;;;;;;19.30;11.97;;;13.00;99.90;;;;;;5068568;28;20178;-71
2024/03/22 06:32:56;;;;;;;16.03;12.00;;;13.10;99.90;;;;;;5066367;28;20190;-70
2024/03/22 06:35:22;;;;;;;18.43;11.87;;;13.10;99.90;;;;;;5071057;28;20174;-71
2024/03/22 06:37:48;;;;;;;15.73;11.00;;;13.00;99.90;;;;;;5071330;28;20177;-70
2024/03/22 06:40:14;;;;;;;19.97;13.23;;;13.20;99.90;;;;;;5071259;28;20415;-70
2024/03/22 06:42:40;;;;;;;18.30;12.77;;;13.20;99.90;;;;;;5071301;28;20411;-70
2024/03/22 06:45:09;;;;;;;16.90;10.87;;;13.20;99.90;;;;;;5053469;28;20907;-71
2024/03/22 06:47:34;;;;;;;20.23;11.60;;;13.40;99.90;;;;;;5071394;28;20174;-70
2024/03/22 06:50:00;;;;;;;24.60;12.87;;;13.60;99.90;;;;;;5071180;28;20432;-70
2024/03/22 06:52:25;;;;;;;29.83;14.17;;;13.90;99.90;;;;;;5072791;28;20196;-71
2024/03/22 06:54:52;;;;;;;17.30;11.80;;;14.00;99.90;;;;;;5075023;28;20291;-70
2024/03/22 06:57:17;;;;;;;13.60;11.00;;;14.20;99.90;;;;;;5053469;28;20209;-70
2024/03/22 06:59:43;;;;;;;18.13;13.57;;;14.40;99.90;;;;;;5071645;28;20448;-71
2024/03/22 07:02:09;;;;;;;24.00;15.70;;;14.60;99.90;;;;;;5074785;28;20169;-70
2024/03/22 07:04:35;;;;;;;27.07;17.40;;;14.70;99.90;;;;;;5074821;28;20629;-71
2024/03/22 07:07:00;;;;;;;25.63;14.60;;;14.90;99.90;;;;;;5074578;28;20473;-70
2024/03/22 07:09:28;;;;;;;23.93;13.13;;;14.90;99.90;;;;;;5056671;28;20239;-70
2024/03/22 07:11:53;;;;;;;18.83;13.80;;;15.00;99.90;;;;;;5074600;28;20197;-70
2024/03/22 07:14:19;;;;;;;20.20;13.80;;;14.90;99.90;;;;;;5074342;28;20476;-70
2024/03/22 07:16:44;;;;;;;22.20;11.63;;;14.90;99.90;;;;;;5056375;28;20194;-71
2024/03/22 07:19:11;;;;;;;27.47;14.77;;;14.80;99.90;;;;;;5056452;28;20221;-71
2024/03/22 07:21:36;;;;;;;23.90;14.00;;;14.90;99.90;;;;;;5074481;28;20169;-71
2024/03/22 07:24:03;;;;;;;20.20;13.10;;;14.90;99.90;;;;;;5074648;28;20404;-71
2024/03/22 07:26:28;;;;;;;19.80;11.13;;;15.00;99.90;;;;;;5070789;28;20175;-70
2024/03/22 07:28:54;;;;;;;16.50;10.90;;;15.10;99.90;;;;;;5070101;28;20456;-71
2024/03/22 07:31:19;;;;;;;17.93;10.90;;;15.20;99.90;;;;;;5074116;28;20185;-70
2024/03/22 07:33:45;;;;;;;12.70;9.60;;;15.10;99.90;;;;;;5061754;28;20257;-70
2024/03/22 07:36:10;;;;;;;15.40;9.70;;;15.30;99.90;;;;;;5069568;28;20184;-70
2024/03/22 07:38:38;;;;;;;12.50;8.77;;;15.40;99.90;;;;;;5073990;28;20190;-70
2024/03/22 07:41:04;;;;;;;12.97;8.57;;;15.60;99.90;;;;;;5073626;28;20165;-70
2024/03/22 07:43:30;;;;;;;11.40;8.07;;;15.70;99.90;;;;;;5073817;28;20919;-71
2024/03/22 07:45:55;;;;;;;8.23;7.00;;;15.90;99.90;;;;;;5073194;28;20419;-71
2024/03/22 07:48:21;;;;;;;15.37;7.80;;;15.90;99.90;;;;;;5073782;28;20276;-70
2024/03/22 07:50:46;;;;;;;9.90;7.13;;;15.90;99.90;;;;;;5074004;28;20197;-70
2024/03/22 07:53:13;;;;;;;8.43;6.67;;;16.10;99.90;;;;;;5065957;28;20182;-71
2024/03/22 07:55:39;;;;;;;8.53;7.07;;;16.30;99.90;;;;;;5073615;28;20158;-70
2024/03/22 07:58:05;;;;;;;11.23;7.23;;;16.40;99.90;;;;;;5073389;28;20741;-70
2024/03/22 08:00:31;;;;;;;11.27;6.57;;;16.50;99.90;;;;;;5073999;28;20686;-69
2024/03/22 08:02:56;;;;;;;6.80;5.30;;;16.60;99.90;;;;;;5055208;28;20491;-68
2024/03/22 08:05:22;;;;;;;10.97;6.90;;;16.80;99.90;;;;;;5073824;28;20691;-69
2024/03/22 08:07:48;;;;;;;10.63;6.40;;;16.90;99.90;;;;;;5073499;28;20170;-69
2024/03/22 08:10:15;;;;;;;9.10;6.33;;;16.90;99.90;;;;;;5073418;28;20162;-69
2024/03/22 08:12:41;;;;;;;9.13;7.00;;;17.10;99.90;;;;;;5073608;28;20651;-69
2024/03/22 08:15:07;;;;;;;9.67;7.13;;;17.10;99.90;;;;;;5073548;28;20450;-68
2024/03/22 08:17:32;;;;;;;9.70;5.93;;;17.30;99.90;;;;;;5073322;28;20162;-68
2024/03/22 08:19:58;;;;;;;9.63;6.90;;;17.70;99.90;;;;;;5073431;28;20473;-69
2024/03/22 08:22:23;;;;;;;12.03;7.60;;;18.40;99.90;;;;;;5073245;28;20163;-68
2024/03/22 08:24:49;;;;;;;7.70;5.80;;;18.50;99.90;;;;;;5073459;28;20166;-69
2024/03/22 08:27:14;;;;;;;12.40;6.73;;;18.70;99.90;;;;;;5069462;28;20170;-68
2024/03/22 08:29:40;;;;;;;8.10;6.23;;;18.70;99.90;;;;;;5069995;28;20194;-69
2024/03/22 08:32:06;;;;;;;11.87;7.00;;;18.60;99.90;;;;;;5062348;28;20166;-69
2024/03/22 08:34:32;;;;;;;8.33;6.40;;;18.30;99.90;;;;;;5073453;28;20225;-69
2024/03/22 08:36:58;;;;;;;10.10;7.57;;;18.20;99.90;;;;;;5072625;28;20437;-68
2024/03/22 08:39:24;;;;;;;9.90;6.17;;;18.10;99.90;;;;;;5073039;28;20260;-68
2024/03/22 08:41:49;;;;;;;15.20;5.80;;;18.00;99.90;;;;;;5072937;28;20406;-68
2024/03/22 08:44:15;;;;;;;10.27;6.47;;;18.20;99.90;;;;;;5072929;28;20499;-68
2024/03/22 08:46:41;;;;;;;8.10;6.53;;;18.20;99.90;;;;;;5058690;28;20185;-68
2024/03/22 08:49:06;;;;;;;9.63;5.83;;;18.20;99.90;;;;;;5069420;28;20277;-69
2024/03/22 08:51:31;;;;;;;8.77;6.13;;;18.30;99.90;;;;;;5065272;28;20205;-68
2024/03/22 08:53:57;;;;;;;9.00;5.40;;;18.20;99.90;;;;;;5067282;28;20239;-68
2024/03/22 08:56:22;;;;;;;9.33;5.20;;;18.50;99.90;;;;;;5054459;28;20536;-69
2024/03/22 08:58:49;;;;;;;8.80;5.93;;;18.80;99.90;;;;;;5072320;28;20193;-68
2024/03/22 09:01:15;;;;;;;7.00;5.70;;;19.50;99.90;;;;;;5072172;28;20526;-68
2024/03/22 09:03:40;;;;;;;13.10;7.37;;;20.10;99.90;;;;;;5058433;28;20409;-69
2024/03/22 09:06:06;;;;;;;11.90;6.67;;;20.30;96.30;;;;;;5071777;28;20181;-68
2024/03/22 09:08:33;;;;;;;11.57;7.30;;;20.30;92.80;;;;;;5072604;28;20186;-68
2024/03/22 09:10:58;;;;;;;9.50;6.80;;;20.20;91.40;;;;;;5072264;28;20166;-68
2024/03/22 09:13:25;;;;;;;8.33;5.40;;;20.50;91.40;;;;;;5072291;28;20498;-68
2024/03/22 09:15:57;;;;;;;7.90;5.70;;;21.40;91.10;;;;;;5071139;28;20450;-69
2024/03/22 09:18:23;;;;;;;7.37;4.63;;;22.00;78.20;;;;;;5072320;28;20416;-69
2024/03/22 09:20:48;;;;;;;5.23;4.70;;;22.50;74.20;;;;;;5072337;28;20419;-68
2024/03/22 09:23:14;;;;;;;5.33;4.73;;;22.80;66.80;;;;;;5072433;28;20640;-69
2024/03/22 09:25:39;;;;;;;8.00;5.20;;;22.80;63.30;;;;;;5070948;28;20167;-70
2024/03/22 09:28:05;;;;;;;4.53;4.13;;;22.90;60.40;;;;;;5052409;28;20194;-70
2024/03/22 09:30:30;;;;;;;7.20;5.13;;;23.20;61.30;;;;;;5058056;28;20170;-70
2024/03/22 09:32:56;;;;;;;5.17;4.67;;;23.10;58.50;;;;;;5072013;28;20170;-70
2024/03/22 09:35:21;;;;;;;5.50;4.50;;;23.50;59.70;;;;;;5071883;28;20198;-70
2024/03/22 09:37:47;;;;;;;7.00;5.40;;;23.10;56.80;;;;;;5071911;28;20288;-69
2024/03/22 09:40:13;;;;;;;13.63;4.57;;;22.90;56.30;;;;;;5072011;28;20167;-69
2024/03/22 09:42:40;;;;;;;7.73;5.20;;;22.60;56.60;;;;;;5072008;28;20636;-70
2024/03/22 09:45:08;;;;;;;6.43;4.80;;;22.20;55.90;;;;;;5071894;28;20401;-70
2024/03/22 09:47:34;;;;;;;10.67;4.93;;;22.00;57.00;;;;;;5071859;28;20988;-69
2024/03/22 09:50:01;;;;;;;7.37;5.43;;;21.60;57.60;;;;;;5071813;28;20467;-70
2024/03/22 09:52:27;;;;;;;9.00;5.60;;;21.30;58.80;;;;;;5071781;28;20192;-70
2024/03/22 09:54:53;;;;;;;7.03;5.40;;;21.30;60.00;;;;;;5071807;28;20669;-70
2024/03/22 09:57:21;;;;;;;7.83;5.17;;;21.20;60.00;;;;;;5071694;28;20474;-70
2024/03/22 09:59:46;;;;;;;5.37;4.50;;;21.50;60.90;;;;;;5071816;28;20201;-70
2024/03/22 10:02:13;;;;;;;6.13;5.10;;;21.50;60.70;;;;;;5053846;28;20416;-70
2024/03/22 10:04:42;;;;;;;6.50;4.87;;;21.50;59.90;;;;;;5071889;28;20170;-70
2024/03/22 10:07:10;;;;;;;5.53;4.90;;;21.20;59.10;;;;;;5071629;28;20400;-69
2024/03/22 10:09:35;;;;;;;10.53;5.37;;;20.40;59.90;;;;;;5071901;28;20440;-69
2024/03/22 10:12:01;;;;;;;9.23;5.37;;;19.70;63.00;;;;;;5053990;28;20466;-69
2024/03/22 10:14:27;;;;;;;7.10;4.73;;;19.70;66.40;;;;;;5071605;28;20208;-69
2024/03/22 10:16:55;;;;;;;6.63;4.47;;;19.60;67.90;;;;;;5071504;28;20580;-70
2024/03/22 10:19:22;;;;;;;6.93;5.67;;;19.60;70.30;;;;;;5071587;28;20190;-70
2024/03/22 10:22:07;;;;;;;8.40;5.93;;;19.60;71.00;;;;;;5071673;28;20401;-70
2024/03/22 10:24:33;;;;;;;7.60;4.23;;;19.40;70.70;;;;;;5071050;28;20412;-69
2024/03/22 10:26:59;;;;;;;10.70;5.37;;;19.40;73.70;;;;;;5062462;28;20923;-70
2024/03/22 10:29:24;;;;;;;5.90;5.30;;;19.50;75.20;;;;;;5075433;28;20193;-69
2024/03/22 10:31:51;;;;;;;7.97;5.00;;;19.50;75.10;;;;;;5075405;28;20609;-70
2024/03/22 10:34:18;;;;;;;7.50;5.83;;;19.60;76.60;;;;;;5067223;28;20186;-70
2024/03/22 10:36:45;;;;;;;9.20;5.60;;;19.30;75.70;;;;;;5075214;28;20411;-70
2024/03/22 10:39:15;;;;;;;8.83;5.47;;;19.40;76.50;;;;;;5075218;28;20463;-70
2024/03/22 10:41:40;;;;;;;9.30;5.30;;;19.20;78.10;;;;;;5073964;28;20416;-70
2024/03/22 10:44:08;;;;;;;6.03;5.40;;;19.40;80.90;;;;;;5075053;28;20418;-69
2024/03/22 10:46:34;;;;;;;6.27;5.40;;;19.70;81.30;;;;;;5075036;28;20170;-70
2024/03/22 10:49:04;;;;;;;6.30;5.10;;;20.20;81.60;;;;;;5075157;28;20527;-70
2024/03/22 10:51:30;;;;;;;9.80;6.33;;;20.60;79.10;;;;;;5075225;28;20410;-70
2024/03/22 10:53:58;;;;;;;7.63;5.50;;;20.90;75.00;;;;;;5073808;28;20459;-69
2024/03/22 10:56:24;;;;;;;10.50;5.90;;;21.20;74.40;;;;;;5061316;28;20456;-70
2024/03/22 10:58:52;;;;;;;7.60;4.87;;;21.40;72.10;;;;;;5071048;28;20519;-70
2024/03/22 11:01:25;;;;;;;19.60;11.93;;;21.40;71.00;;;;;;5074858;28;20764;-70
2024/03/22 11:03:51;;;;;;;7.90;7.10;;;21.30;70.10;;;;;;5074802;28;20420;-69
2024/03/22 11:06:20;;;;;;;9.00;6.97;;;21.20;70.40;;;;;;5074336;28;20891;-69
2024/03/22 11:08:50;;;;;;;9.40;6.73;;;20.60;68.60;;;;;;5074663;28;20687;-70
2024/03/22 11:11:19;;;;;;;11.90;6.97;;;20.10;71.80;;;;;;5074901;28;20742;-70
2024/03/22 11:13:47;;;;;;;10.57;7.50;;;19.40;72.90;;;;;;5074714;28;20855;-70
2024/03/22 11:16:14;;;;;;;19.13;8.10;;;19.00;78.20;;;;;;5074532;28;20794;-70
2024/03/22 11:18:39;;;;;;;10.30;7.10;;;18.80;82.60;;;;;;5074634;28;20424;-69
2024/03/22 11:21:08;;;;;;;12.00;7.90;;;18.90;86.00;;;;;;5074624;28;20821;-69
2024/03/22 11:23:36;;;;;;;9.67;8.10;;;19.10;87.50;;;;;;5074527;28;20170;-71
2024/03/22 11:26:01;;;;;;;9.50;6.67;;;19.40;89.70;;;;;;5072313;28;20420;-69
2024/03/22 11:28:27;;;;;;;11.90;7.60;;;19.90;88.20;;;;;;5068612;28;20999;-69
2024/03/22 11:30:52;;;;;;;11.40;8.30;;;20.20;82.80;;;;;;5074297;28;20186;-70
2024/03/22 11:33:18;;;;;;;10.67;6.40;;;20.30;79.20;;;;;;5074017;28;20544;-71
2024/03/22 11:35:44;;;;;;;8.03;6.93;;;20.40;78.50;;;;;;5074039;28;20536;-70
2024/03/22 11:38:10;;;;;;;11.13;8.20;;;20.40;78.00;;;;;;5073400;28;20691;-70
2024/03/22 11:40:36;;;;;;;9.70;8.10;;;20.20;75.60;;;;;;5074292;28;20491;-69
2024/03/22 11:43:02;;;;;;;11.27;8.70;;;19.60;77.90;;;;;;5074221;28;20166;-70
2024/03/22 11:45:28;;;;;;;11.63;8.53;;;19.40;80.80;;;;;;5073997;28;20817;-70
2024/03/22 11:47:54;;;;;;;12.90;8.07;;;19.00;84.50;;;;;;5074047;28;20504;-70
2024/03/22 11:50:19;;;;;;;18.53;7.73;;;18.80;89.30;;;;;;5056144;28;20503;-70
2024/03/22 11:52:48;;;;;;;14.80;8.40;;;18.80;91.40;;;;;;5073909;28;20197;-70
2024/03/22 11:55:14;;;;;;;13.13;8.23;;;18.80;93.40;;;;;;5073888;28;20631;-70
2024/03/22 11:57:40;;;;;;;15.30;9.60;;;18.80;94.40;;;;;;5073681;28;20430;-69
2024/03/22 12:00:08;;;;;;;12.53;8.80;;;18.40;95.20;;;;;;5073843;28;20420;-69
2024/03/22 12:02:36;;;;;;;12.00;8.93;;;18.00;99.90;;;;;;5073838;28;20492;-70
2024/03/22 12:05:02;;;;;;;14.93;9.00;;;17.70;99.90;;;;;;5073860;28;20739;-72
2024/03/22 12:07:28;;;;;;;10.30;7.97;;;17.70;99.90;;;;;;5073523;28;20410;-72
2024/03/22 12:09:54;;;;;;;12.53;7.93;;;17.60;99.90;;;;;;5073642;28;20461;-72
2024/03/22 12:12:21;;;;;;;13.00;9.03;;;17.70;99.90;;;;;;5072793;28;20511;-72
2024/03/22 12:14:47;;;;;;;12.77;8.30;;;17.60;99.90;;;;;;5072997;28;20319;-72
2024/03/22 12:17:13;;;;;;;12.67;7.97;;;17.30;99.90;;;;;;5072023;28;20962;-72
2024/03/22 12:19:38;;;;;;;11.63;7.87;;;17.50;99.90;;;;;;5073378;28;20190;-71
2024/03/22 12:22:05;;;;;;;10.67;8.50;;;17.60;99.90;;;;;;5073471;28;20643;-71
2024/03/22 12:24:32;;;;;;;14.10;9.20;;;17.50;99.90;;;;;;5065751;28;20183;-72
2024/03/22 12:26:57;;;;;;;10.63;7.40;;;17.70;99.90;;;;;;5058222;28;20461;-72
2024/03/22 12:29:23;;;;;;;14.33;8.00;;;17.80;99.90;;;;;;5059615;28;20443;-72
2024/03/22 12:31:49;;;;;;;11.33;8.00;;;17.90;99.90;;;;;;5073171;28;20622;-71